Terminal Aerodrome Forecast
Issued by NWS Jackson, MS

Home | Current Version | Previous Version | Text Only | Print | Product List | Glossary On
Versions: 1 2 3 4 5 6 7 8 9 10 11 12 13 14 15 16 17 18 19 20
000
FTUS44 KMEG 221735
TAFTUP
TAF
KTUP 221735Z 2218/2318 07008KT P6SM SCT150 OVC250
     FM222000 05004KT P6SM VCSH SCT040 BKN100
     FM230800 36002KT P6SM FEW020 SCT050
     FM231100 26004KT P6SM -TSRA SCT030CB OVC100=

USA.gov is the U.S. government's official web portal to all federal, state and local government web resources and services.